sensor_id;sensor_type;location;lat;lon;timestamp;pressure;altitude;pressure_sealevel;temperature;humidity
72548;BME280;60570;50.848;6.776;2023-09-07T00:00:25;100885.25;;;23.11;60.67
72548;BME280;60570;50.848;6.776;2023-09-07T00:01:25;100882.41;;;23.11;60.34
72548;BME280;60570;50.848;6.776;2023-09-07T00:02:27;100882.84;;;23.10;60.55
72548;BME280;60570;50.848;6.776;2023-09-07T00:03:29;100886.47;;;23.10;60.65
72548;BME280;60570;50.848;6.776;2023-09-07T00:04:30;100882.84;;;23.10;60.55
72548;BME280;60570;50.848;6.776;2023-09-07T00:05:31;100875.53;;;23.09;60.73
72548;BME280;60570;50.848;6.776;2023-09-07T00:06:32;100871.88;;;23.08;60.41
72548;BME280;60570;50.848;6.776;2023-09-07T00:07:34;100881.22;;;23.09;60.63
72548;BME280;60570;50.848;6.776;2023-09-07T00:08:36;100880.81;;;23.07;60.48
72548;BME280;60570;50.848;6.776;2023-09-07T00:09:36;100881.63;;;23.07;60.46
72548;BME280;60570;50.848;6.776;2023-09-07T00:10:38;100877.16;;;23.06;60.43
72548;BME280;60570;50.848;6.776;2023-09-07T00:11:38;100879.22;;;23.06;60.61
72548;BME280;60570;50.848;6.776;2023-09-07T00:12:40;100879.22;;;23.06;60.55
72548;BME280;60570;50.848;6.776;2023-09-07T00:13:40;100876.75;;;23.04;60.70
72548;BME280;60570;50.848;6.776;2023-09-07T00:14:42;100870.31;;;23.04;60.65
72548;BME280;60570;50.848;6.776;2023-09-07T00:15:43;100873.13;;;23.04;60.92
72548;BME280;60570;50.848;6.776;2023-09-07T00:16:44;100875.16;;;23.03;60.50
72548;BME280;60570;50.848;6.776;2023-09-07T00:17:45;100868.69;;;23.03;60.75
72548;BME280;60570;50.848;6.776;2023-09-07T00:18:48;100870.72;;;23.02;60.68
72548;BME280;60570;50.848;6.776;2023-09-07T00:19:49;100869.91;;;23.02;60.58
72548;BME280;60570;50.848;6.776;2023-09-07T00:20:51;100868.28;;;23.01;60.87
72548;BME280;60570;50.848;6.776;2023-09-07T00:21:51;100871.94;;;23.01;61.09
72548;BME280;60570;50.848;6.776;2023-09-07T00:22:53;100873.94;;;23.01;60.68
72548;BME280;60570;50.848;6.776;2023-09-07T00:23:53;100873.16;;;23.00;60.97
72548;BME280;60570;50.848;6.776;2023-09-07T00:24:55;100870.31;;;23.00;60.93
72548;BME280;60570;50.848;6.776;2023-09-07T00:25:56;100873.16;;;23.00;60.56
72548;BME280;60570;50.848;6.776;2023-09-07T00:26:57;100877.19;;;22.99;60.84
72548;BME280;60570;50.848;6.776;2023-09-07T00:27:58;100874.38;;;22.99;60.73
72548;BME280;60570;50.848;6.776;2023-09-07T00:28:59;100871.53;;;22.99;60.93
72548;BME280;60570;50.848;6.776;2023-09-07T00:30:00;100879.22;;;22.99;60.71
72548;BME280;60570;50.848;6.776;2023-09-07T00:31:01;100869.13;;;22.98;60.74
72548;BME280;60570;50.848;6.776;2023-09-07T00:32:04;100866.28;;;22.98;60.65
72548;BME280;60570;50.848;6.776;2023-09-07T00:33:04;100869.53;;;22.96;61.06
72548;BME280;60570;50.848;6.776;2023-09-07T00:34:07;100874.38;;;22.96;60.58
72548;BME280;60570;50.848;6.776;2023-09-07T00:35:08;100869.53;;;22.96;60.71
72548;BME280;60570;50.848;6.776;2023-09-07T00:36:09;100870.72;;;22.95;60.80
72548;BME280;60570;50.848;6.776;2023-09-07T00:37:10;100870.72;;;22.95;60.94
72548;BME280;60570;50.848;6.776;2023-09-07T00:38:12;100869.91;;;22.95;60.96
72548;BME280;60570;50.848;6.776;2023-09-07T00:39:13;100870.34;;;22.93;60.61
72548;BME280;60570;50.848;6.776;2023-09-07T00:40:14;100870.34;;;22.93;60.80
72548;BME280;60570;50.848;6.776;2023-09-07T00:41:15;100871.56;;;22.92;60.84
72548;BME280;60570;50.848;6.776;2023-09-07T00:42:16;100874.41;;;22.92;60.72
72548;BME280;60570;50.848;6.776;2023-09-07T00:43:17;100868.72;;;22.92;60.80
72548;BME280;60570;50.848;6.776;2023-09-07T00:44:18;100867.91;;;22.92;60.63
72548;BME280;60570;50.848;6.776;2023-09-07T00:45:19;100871.56;;;22.92;60.95
72548;BME280;60570;50.848;6.776;2023-09-07T00:46:20;100872.78;;;22.91;61.10
72548;BME280;60570;50.848;6.776;2023-09-07T00:47:22;100871.94;;;22.91;60.92
72548;BME280;60570;50.848;6.776;2023-09-07T00:48:24;100867.53;;;22.90;60.71
72548;BME280;60570;50.848;6.776;2023-09-07T00:49:25;100876.03;;;22.90;60.68
72548;BME280;60570;50.848;6.776;2023-09-07T00:50:27;100871.56;;;22.89;60.73
72548;BME280;60570;50.848;6.776;2023-09-07T00:51:28;100874.03;;;22.87;61.03
72548;BME280;60570;50.848;6.776;2023-09-07T00:52:30;100874.81;;;22.87;61.01
72548;BME280;60570;50.848;6.776;2023-09-07T00:53:30;100876.84;;;22.87;61.01
72548;BME280;60570;50.848;6.776;2023-09-07T00:54:32;100863.88;;;22.86;61.12
72548;BME280;60570;50.848;6.776;2023-09-07T00:55:33;100871.56;;;22.85;60.95
72548;BME280;60570;50.848;6.776;2023-09-07T00:56:35;100876.47;;;22.85;60.92
72548;BME280;60570;50.848;6.776;2023-09-07T00:57:37;100867.13;;;22.84;61.12
72548;BME280;60570;50.848;6.776;2023-09-07T00:58:39;100876.06;;;22.83;60.75
72548;BME280;60570;50.848;6.776;2023-09-07T00:59:41;100869.56;;;22.82;61.17
72548;BME280;60570;50.848;6.776;2023-09-07T01:00:41;100871.59;;;22.82;61.09
72548;BME280;60570;50.848;6.776;2023-09-07T01:01:43;100871.59;;;22.82;61.18
72548;BME280;60570;50.848;6.776;2023-09-07T01:02:43;100869.19;;;22.80;61.03
72548;BME280;60570;50.848;6.776;2023-09-07T01:03:46;100870.78;;;22.81;60.84
72548;BME280;60570;50.848;6.776;2023-09-07T01:04:48;100871.19;;;22.80;61.11
72548;BME280;60570;50.848;6.776;2023-09-07T01:05:51;100867.53;;;22.79;60.87
72548;BME280;60570;50.848;6.776;2023-09-07T01:06:55;100870.38;;;22.79;61.08
72548;BME280;60570;50.848;6.776;2023-09-07T01:07:58;100862.28;;;22.78;60.81
72548;BME280;60570;50.848;6.776;2023-09-07T01:09:03;100873.22;;;22.79;60.83
72548;BME280;60570;50.848;6.776;2023-09-07T01:10:08;100873.63;;;22.78;61.06
72548;BME280;60570;50.848;6.776;2023-09-07T01:11:14;100867.16;;;22.77;60.80
72548;BME280;60570;50.848;6.776;2023-09-07T01:12:16;100862.72;;;22.76;61.16
72548;BME280;60570;50.848;6.776;2023-09-07T01:13:18;100862.72;;;22.76;60.80
72548;BME280;60570;50.848;6.776;2023-09-07T01:14:19;100859.06;;;22.76;60.84
72548;BME280;60570;50.848;6.776;2023-09-07T01:15:19;100859.06;;;22.76;61.12
72548;BME280;60570;50.848;6.776;2023-09-07T01:16:21;100859.06;;;22.76;60.87
72548;BME280;60570;50.848;6.776;2023-09-07T01:17:24;100853.00;;;22.74;61.08
72548;BME280;60570;50.848;6.776;2023-09-07T01:18:26;100851.38;;;22.73;60.96
72548;BME280;60570;50.848;6.776;2023-09-07T01:19:26;100857.88;;;22.73;60.90
72548;BME280;60570;50.848;6.776;2023-09-07T01:20:29;100856.25;;;22.72;60.84
72548;BME280;60570;50.848;6.776;2023-09-07T01:21:33;100855.44;;;22.72;60.87
72548;BME280;60570;50.848;6.776;2023-09-07T01:22:35;100854.63;;;22.71;60.86
72548;BME280;60570;50.848;6.776;2023-09-07T01:23:36;100859.50;;;22.71;60.84
72548;BME280;60570;50.848;6.776;2023-09-07T01:24:38;100855.84;;;22.70;61.07
72548;BME280;60570;50.848;6.776;2023-09-07T01:25:39;100857.06;;;22.69;60.94
72548;BME280;60570;50.848;6.776;2023-09-07T01:26:41;100849.34;;;22.70;60.85
72548;BME280;60570;50.848;6.776;2023-09-07T01:27:42;100858.28;;;22.68;61.08
72548;BME280;60570;50.848;6.776;2023-09-07T01:28:44;100851.78;;;22.68;60.92
72548;BME280;60570;50.848;6.776;2023-09-07T01:29:45;100844.09;;;22.68;61.05
72548;BME280;60570;50.848;6.776;2023-09-07T01:30:46;100848.19;;;22.67;61.09
72548;BME280;60570;50.848;6.776;2023-09-07T01:31:47;100845.34;;;22.67;60.87
72548;BME280;60570;50.848;6.776;2023-09-07T01:32:48;100842.50;;;22.67;60.97
72548;BME280;60570;50.848;6.776;2023-09-07T01:33:49;100840.88;;;22.66;60.94
72548;BME280;60570;50.848;6.776;2023-09-07T01:34:51;100839.28;;;22.65;61.22
72548;BME280;60570;50.848;6.776;2023-09-07T01:35:53;100843.72;;;22.66;60.91
72548;BME280;60570;50.848;6.776;2023-09-07T01:36:55;100846.97;;;22.65;61.11
72548;BME280;60570;50.848;6.776;2023-09-07T01:37:56;100835.63;;;22.65;61.16
72548;BME280;60570;50.848;6.776;2023-09-07T01:38:57;100846.16;;;22.64;61.19
72548;BME280;60570;50.848;6.776;2023-09-07T01:39:58;100841.72;;;22.63;61.15
72548;BME280;60570;50.848;6.776;2023-09-07T01:41:01;100839.25;;;22.62;60.86
72548;BME280;60570;50.848;6.776;2023-09-07T01:42:01;100833.22;;;22.60;61.08
72548;BME280;60570;50.848;6.776;2023-09-07T01:43:02;100832.41;;;22.59;60.92
72548;BME280;60570;50.848;6.776;2023-09-07T01:44:03;100828.75;;;22.59;61.22
72548;BME280;60570;50.848;6.776;2023-09-07T01:45:04;100826.75;;;22.59;60.93
72548;BME280;60570;50.848;6.776;2023-09-07T01:46:06;100831.59;;;22.59;61.04
72548;BME280;60570;50.848;6.776;2023-09-07T01:47:06;100830.00;;;22.58;61.11
72548;BME280;60570;50.848;6.776;2023-09-07T01:48:08;100830.00;;;22.58;61.28
72548;BME280;60570;50.848;6.776;2023-09-07T01:49:09;100827.16;;;22.58;61.24
72548;BME280;60570;50.848;6.776;2023-09-07T01:50:10;100827.53;;;22.56;60.98
72548;BME280;60570;50.848;6.776;2023-09-07T01:51:11;100836.00;;;22.56;60.91
72548;BME280;60570;50.848;6.776;2023-09-07T01:52:14;100832.41;;;22.56;60.94
72548;BME280;60570;50.848;6.776;2023-09-07T01:53:15;100836.00;;;22.56;60.90
72548;BME280;60570;50.848;6.776;2023-09-07T01:54:16;100835.22;;;22.56;61.03
72548;BME280;60570;50.848;6.776;2023-09-07T01:55:17;100838.44;;;22.54;60.97
72548;BME280;60570;50.848;6.776;2023-09-07T01:56:18;100830.75;;;22.55;61.08
72548;BME280;60570;50.848;6.776;2023-09-07T01:57:19;100832.00;;;22.54;61.30
72548;BME280;60570;50.848;6.776;2023-09-07T01:58:20;100829.94;;;22.54;61.22
72548;BME280;60570;50.848;6.776;2023-09-07T01:59:21;100831.19;;;22.53;60.98
72548;BME280;60570;50.848;6.776;2023-09-07T02:00:22;100823.09;;;22.52;61.04
72548;BME280;60570;50.848;6.776;2023-09-07T02:01:23;100829.56;;;22.52;61.14
72548;BME280;60570;50.848;6.776;2023-09-07T02:02:25;100825.94;;;22.52;61.13
72548;BME280;60570;50.848;6.776;2023-09-07T02:03:26;100828.75;;;22.52;60.92
72548;BME280;60570;50.848;6.776;2023-09-07T02:04:27;100832.78;;;22.51;61.06
72548;BME280;60570;50.848;6.776;2023-09-07T02:05:28;100829.97;;;22.51;61.23
72548;BME280;60570;50.848;6.776;2023-09-07T02:06:30;100829.97;;;22.51;60.98
72548;BME280;60570;50.848;6.776;2023-09-07T02:07:31;100826.31;;;22.50;61.08
72548;BME280;60570;50.848;6.776;2023-09-07T02:08:33;100821.06;;;22.49;61.27
72548;BME280;60570;50.848;6.776;2023-09-07T02:09:33;100830.38;;;22.49;61.29
72548;BME280;60570;50.848;6.776;2023-09-07T02:10:35;100824.72;;;22.49;60.92
72548;BME280;60570;50.848;6.776;2023-09-07T02:11:35;100826.72;;;22.49;60.92
72548;BME280;60570;50.848;6.776;2023-09-07T02:12:37;100825.13;;;22.48;61.22
72548;BME280;60570;50.848;6.776;2023-09-07T02:13:37;100822.31;;;22.48;61.22
72548;BME280;60570;50.848;6.776;2023-09-07T02:14:38;100825.13;;;22.48;61.04
72548;BME280;60570;50.848;6.776;2023-09-07T02:15:40;100830.41;;;22.46;60.95
72548;BME280;60570;50.848;6.776;2023-09-07T02:16:40;100827.56;;;22.46;61.21
72548;BME280;60570;50.848;6.776;2023-09-07T02:17:42;100824.72;;;22.46;61.24
72548;BME280;60570;50.848;6.776;2023-09-07T02:18:45;100825.94;;;22.45;61.04
72548;BME280;60570;50.848;6.776;2023-09-07T02:19:47;100828.75;;;22.45;61.40
72548;BME280;60570;50.848;6.776;2023-09-07T02:20:47;100827.97;;;22.44;61.05
72548;BME280;60570;50.848;6.776;2023-09-07T02:21:48;100835.66;;;22.44;61.22
72548;BME280;60570;50.848;6.776;2023-09-07T02:22:51;100824.34;;;22.44;61.09
72548;BME280;60570;50.848;6.776;2023-09-07T02:23:51;100828.38;;;22.43;61.17
72548;BME280;60570;50.848;6.776;2023-09-07T02:24:53;100825.53;;;22.43;61.02
72548;BME280;60570;50.848;6.776;2023-09-07T02:25:54;100817.44;;;22.41;61.41
72548;BME280;60570;50.848;6.776;2023-09-07T02:26:55;100828.78;;;22.41;61.10
72548;BME280;60570;50.848;6.776;2023-09-07T02:27:55;100827.97;;;22.41;61.28
72548;BME280;60570;50.848;6.776;2023-09-07T02:28:57;100826.38;;;22.40;61.25
72548;BME280;60570;50.848;6.776;2023-09-07T02:29:58;100820.69;;;22.40;61.38
72548;BME280;60570;50.848;6.776;2023-09-07T02:31:02;100829.19;;;22.40;61.08
72548;BME280;60570;50.848;6.776;2023-09-07T02:32:03;100823.13;;;22.38;61.39
72548;BME280;60570;50.848;6.776;2023-09-07T02:33:05;100822.31;;;22.37;61.24
72548;BME280;60570;50.848;6.776;2023-09-07T02:34:05;100830.81;;;22.37;61.27
72548;BME280;60570;50.848;6.776;2023-09-07T02:35:07;100826.38;;;22.36;61.11
72548;BME280;60570;50.848;6.776;2023-09-07T02:36:08;100835.66;;;22.37;61.20
72548;BME280;60570;50.848;6.776;2023-09-07T02:37:09;100834.88;;;22.36;61.20
72548;BME280;60570;50.848;6.776;2023-09-07T02:38:11;100832.41;;;22.35;61.30
72548;BME280;60570;50.848;6.776;2023-09-07T02:39:13;100831.22;;;22.36;61.18
72548;BME280;60570;50.848;6.776;2023-09-07T02:40:14;100825.97;;;22.34;61.24
72548;BME280;60570;50.848;6.776;2023-09-07T02:41:16;100827.19;;;22.33;61.41
72548;BME280;60570;50.848;6.776;2023-09-07T02:42:17;100825.56;;;22.32;61.10
72548;BME280;60570;50.848;6.776;2023-09-07T02:43:18;100829.19;;;22.33;61.43
72548;BME280;60570;50.848;6.776;2023-09-07T02:44:19;100827.19;;;22.33;61.36
72548;BME280;60570;50.848;6.776;2023-09-07T02:45:20;100824.75;;;22.32;61.45
72548;BME280;60570;50.848;6.776;2023-09-07T02:46:21;100821.94;;;22.32;61.39
72548;BME280;60570;50.848;6.776;2023-09-07T02:47:22;100826.00;;;22.31;61.31
72548;BME280;60570;50.848;6.776;2023-09-07T02:48:22;100827.19;;;22.29;61.56
72548;BME280;60570;50.848;6.776;2023-09-07T02:49:24;100817.88;;;22.29;61.68
72548;BME280;60570;50.848;6.776;2023-09-07T02:50:25;100828.41;;;22.28;61.23
72548;BME280;60570;50.848;6.776;2023-09-07T02:51:26;100822.75;;;22.28;61.32
72548;BME280;60570;50.848;6.776;2023-09-07T02:52:27;100829.63;;;22.27;61.55
72548;BME280;60570;50.848;6.776;2023-09-07T02:53:29;100822.34;;;22.26;61.36
72548;BME280;60570;50.848;6.776;2023-09-07T02:54:30;100830.03;;;22.26;61.31
72548;BME280;60570;50.848;6.776;2023-09-07T02:55:31;100826.38;;;22.25;61.60
72548;BME280;60570;50.848;6.776;2023-09-07T02:56:32;100822.72;;;22.25;61.27
72548;BME280;60570;50.848;6.776;2023-09-07T02:57:34;100828.41;;;22.25;61.50
72548;BME280;60570;50.848;6.776;2023-09-07T02:58:35;100829.63;;;22.24;61.33
72548;BME280;60570;50.848;6.776;2023-09-07T02:59:37;100822.34;;;22.23;61.46
72548;BME280;60570;50.848;6.776;2023-09-07T03:00:41;100831.63;;;22.23;61.42
72548;BME280;60570;50.848;6.776;2023-09-07T03:01:42;100830.03;;;22.22;61.66
72548;BME280;60570;50.848;6.776;2023-09-07T03:02:43;100829.22;;;22.22;61.66
72548;BME280;60570;50.848;6.776;2023-09-07T03:03:44;100828.41;;;22.21;61.55
72548;BME280;60570;50.848;6.776;2023-09-07T03:04:45;100827.59;;;22.21;61.55
72548;BME280;60570;50.848;6.776;2023-09-07T03:05:47;100826.00;;;22.20;61.46
72548;BME280;60570;50.848;6.776;2023-09-07T03:06:47;100830.44;;;22.21;61.32
72548;BME280;60570;50.848;6.776;2023-09-07T03:07:49;100825.19;;;22.19;61.66
72548;BME280;60570;50.848;6.776;2023-09-07T03:08:51;100830.03;;;22.19;61.39
72548;BME280;60570;50.848;6.776;2023-09-07T03:09:52;100834.09;;;22.18;61.30
72548;BME280;60570;50.848;6.776;2023-09-07T03:10:53;100832.44;;;22.17;61.59
72548;BME280;60570;50.848;6.776;2023-09-07T03:11:54;100837.31;;;22.16;61.49
72548;BME280;60570;50.848;6.776;2023-09-07T03:12:55;100834.50;;;22.16;61.49
72548;BME280;60570;50.848;6.776;2023-09-07T03:13:56;100833.69;;;22.16;61.57
72548;BME280;60570;50.848;6.776;2023-09-07T03:14:57;100826.00;;;22.16;61.35
72548;BME280;60570;50.848;6.776;2023-09-07T03:15:58;100829.63;;;22.17;61.39
72548;BME280;60570;50.848;6.776;2023-09-07T03:17:00;100826.78;;;22.17;61.26
72548;BME280;60570;50.848;6.776;2023-09-07T03:18:00;100828.00;;;22.16;61.33
72548;BME280;60570;50.848;6.776;2023-09-07T03:19:02;100822.78;;;22.14;61.26
72548;BME280;60570;50.848;6.776;2023-09-07T03:20:03;100824.78;;;22.14;61.53
72548;BME280;60570;50.848;6.776;2023-09-07T03:21:13;100821.13;;;22.13;61.66
72548;BME280;60570;50.848;6.776;2023-09-07T03:22:14;100819.94;;;22.11;61.82
72548;BME280;60570;50.848;6.776;2023-09-07T03:23:18;100820.72;;;22.11;61.76
72548;BME280;60570;50.848;6.776;2023-09-07T03:24:20;100818.31;;;22.10;61.67
72548;BME280;60570;50.848;6.776;2023-09-07T03:25:22;100818.31;;;22.10;61.65
72548;BME280;60570;50.848;6.776;2023-09-07T03:26:23;100821.56;;;22.08;61.61
72548;BME280;60570;50.848;6.776;2023-09-07T03:27:24;100823.56;;;22.08;61.97
72548;BME280;60570;50.848;6.776;2023-09-07T03:28:25;100824.81;;;22.07;61.77
72548;BME280;60570;50.848;6.776;2023-09-07T03:29:27;100823.97;;;22.06;61.78
72548;BME280;60570;50.848;6.776;2023-09-07T03:30:27;100822.34;;;22.05;61.55
72548;BME280;60570;50.848;6.776;2023-09-07T03:31:29;100830.06;;;22.05;61.60
72548;BME280;60570;50.848;6.776;2023-09-07T03:32:29;100822.34;;;22.05;61.79
72548;BME280;60570;50.848;6.776;2023-09-07T03:33:33;100821.94;;;22.03;61.82
72548;BME280;60570;50.848;6.776;2023-09-07T03:34:33;100822.75;;;22.04;61.85
72548;BME280;60570;50.848;6.776;2023-09-07T03:35:35;100825.59;;;22.04;61.58
72548;BME280;60570;50.848;6.776;2023-09-07T03:36:35;100821.16;;;22.03;61.71
72548;BME280;60570;50.848;6.776;2023-09-07T03:37:37;100815.50;;;22.03;61.82
72548;BME280;60570;50.848;6.776;2023-09-07T03:38:38;100826.81;;;22.03;61.90
72548;BME280;60570;50.848;6.776;2023-09-07T03:39:40;100823.59;;;22.01;61.96
72548;BME280;60570;50.848;6.776;2023-09-07T03:40:41;100828.44;;;22.00;61.83
72548;BME280;60570;50.848;6.776;2023-09-07T03:41:43;100823.59;;;22.01;61.69
72548;BME280;60570;50.848;6.776;2023-09-07T03:42:45;100822.38;;;21.98;61.96
72548;BME280;60570;50.848;6.776;2023-09-07T03:43:47;100832.50;;;21.99;61.79
72548;BME280;60570;50.848;6.776;2023-09-07T03:44:47;100818.72;;;21.98;61.69
72548;BME280;60570;50.848;6.776;2023-09-07T03:45:49;100825.59;;;21.97;61.69
72548;BME280;60570;50.848;6.776;2023-09-07T03:46:49;100818.31;;;21.96;61.81
72548;BME280;60570;50.848;6.776;2023-09-07T03:47:51;100819.94;;;21.97;61.81
72548;BME280;60570;50.848;6.776;2023-09-07T03:48:51;100821.97;;;21.96;61.79
72548;BME280;60570;50.848;6.776;2023-09-07T03:49:53;100828.44;;;21.97;61.86
72548;BME280;60570;50.848;6.776;2023-09-07T03:50:53;100826.81;;;21.96;61.58
72548;BME280;60570;50.848;6.776;2023-09-07T03:51:55;100826.41;;;21.94;61.82
72548;BME280;60570;50.848;6.776;2023-09-07T03:52:55;100820.75;;;21.94;62.17
72548;BME280;60570;50.848;6.776;2023-09-07T03:53:57;100824.41;;;21.94;61.82
72548;BME280;60570;50.848;6.776;2023-09-07T03:54:59;100823.97;;;21.92;62.06
72548;BME280;60570;50.848;6.776;2023-09-07T03:56:02;100823.97;;;21.92;61.95
72548;BME280;60570;50.848;6.776;2023-09-07T03:57:04;100822.38;;;21.91;62.07
72548;BME280;60570;50.848;6.776;2023-09-07T03:58:05;100823.16;;;21.92;61.81
72548;BME280;60570;50.848;6.776;2023-09-07T03:59:06;100829.25;;;21.90;61.95
72548;BME280;60570;50.848;6.776;2023-09-07T04:00:08;100825.59;;;21.90;61.71
72548;BME280;60570;50.848;6.776;2023-09-07T04:01:08;100829.25;;;21.90;61.83
72548;BME280;60570;50.848;6.776;2023-09-07T04:02:10;100827.63;;;21.89;61.75
72548;BME280;60570;50.848;6.776;2023-09-07T04:03:10;100828.44;;;21.90;61.99
72548;BME280;60570;50.848;6.776;2023-09-07T04:04:12;100832.47;;;21.89;62.05
72548;BME280;60570;50.848;6.776;2023-09-07T04:05:12;100824.41;;;21.87;62.08
72548;BME280;60570;50.848;6.776;2023-09-07T04:06:14;100830.47;;;21.86;61.82
72548;BME280;60570;50.848;6.776;2023-09-07T04:07:15;100829.66;;;21.85;61.99
72548;BME280;60570;50.848;6.776;2023-09-07T04:08:16;100831.25;;;21.86;61.92
72548;BME280;60570;50.848;6.776;2023-09-07T04:09:17;100832.50;;;21.85;61.78
72548;BME280;60570;50.848;6.776;2023-09-07T04:10:19;100829.66;;;21.85;62.15
72548;BME280;60570;50.848;6.776;2023-09-07T04:11:21;100826.44;;;21.83;62.00
72548;BME280;60570;50.848;6.776;2023-09-07T04:12:21;100833.28;;;21.82;62.03
72548;BME280;60570;50.848;6.776;2023-09-07T04:13:23;100820.75;;;21.83;62.04
72548;BME280;60570;50.848;6.776;2023-09-07T04:14:23;100824.78;;;21.82;61.86
72548;BME280;60570;50.848;6.776;2023-09-07T04:15:25;100826.84;;;21.82;61.99
72548;BME280;60570;50.848;6.776;2023-09-07T04:16:26;100830.84;;;21.81;61.86
72548;BME280;60570;50.848;6.776;2023-09-07T04:17:28;100828.84;;;21.81;61.89
72548;BME280;60570;50.848;6.776;2023-09-07T04:18:28;100822.75;;;21.79;61.84
72548;BME280;60570;50.848;6.776;2023-09-07T04:19:30;100825.59;;;21.79;62.11
72548;BME280;60570;50.848;6.776;2023-09-07T04:20:31;100817.09;;;21.79;62.20
72548;BME280;60570;50.848;6.776;2023-09-07T04:21:33;100818.28;;;21.78;61.93
72548;BME280;60570;50.848;6.776;2023-09-07T04:22:33;100819.53;;;21.77;61.91
72548;BME280;60570;50.848;6.776;2023-09-07T04:23:35;100822.34;;;21.77;62.08
72548;BME280;60570;50.848;6.776;2023-09-07T04:24:36;100828.00;;;21.77;62.00
72548;BME280;60570;50.848;6.776;2023-09-07T04:25:38;100824.78;;;21.75;62.16
72548;BME280;60570;50.848;6.776;2023-09-07T04:26:39;100821.94;;;21.75;61.96
72548;BME280;60570;50.848;6.776;2023-09-07T04:27:40;100823.94;;;21.75;62.00
72548;BME280;60570;50.848;6.776;2023-09-07T04:28:41;100827.59;;;21.75;62.15
72548;BME280;60570;50.848;6.776;2023-09-07T04:29:42;100826.78;;;21.75;62.21
72548;BME280;60570;50.848;6.776;2023-09-07T04:30:43;100818.69;;;21.73;62.05
72548;BME280;60570;50.848;6.776;2023-09-07T04:31:43;100824.38;;;21.73;62.06
72548;BME280;60570;50.848;6.776;2023-09-07T04:32:45;100821.94;;;21.72;62.20
72548;BME280;60570;50.848;6.776;2023-09-07T04:33:45;100824.38;;;21.73;62.04
72548;BME280;60570;50.848;6.776;2023-09-07T04:34:46;100821.94;;;21.72;62.07
72548;BME280;60570;50.848;6.776;2023-09-07T04:35:47;100821.13;;;21.71;61.94
72548;BME280;60570;50.848;6.776;2023-09-07T04:36:48;100829.63;;;21.71;62.14
72548;BME280;60570;50.848;6.776;2023-09-07T04:37:49;100822.72;;;21.69;62.10
72548;BME280;60570;50.848;6.776;2023-09-07T04:38:50;100819.53;;;21.70;61.96
72548;BME280;60570;50.848;6.776;2023-09-07T04:39:52;100825.56;;;21.69;62.10
72548;BME280;60570;50.848;6.776;2023-09-07T04:40:54;100819.13;;;21.68;62.44
72548;BME280;60570;50.848;6.776;2023-09-07T04:41:56;100827.59;;;21.68;62.30
72548;BME280;60570;50.848;6.776;2023-09-07T04:42:56;100818.31;;;21.68;62.21
72548;BME280;60570;50.848;6.776;2023-09-07T04:43:58;100822.31;;;21.67;62.32
72548;BME280;60570;50.848;6.776;2023-09-07T04:44:58;100817.50;;;21.67;62.11
72548;BME280;60570;50.848;6.776;2023-09-07T04:45:59;100818.72;;;21.66;62.16
72548;BME280;60570;50.848;6.776;2023-09-07T04:47:00;100822.72;;;21.65;62.25
72548;BME280;60570;50.848;6.776;2023-09-07T04:48:01;100818.31;;;21.64;61.91
72548;BME280;60570;50.848;6.776;2023-09-07T04:49:02;100815.47;;;21.64;61.99
72548;BME280;60570;50.848;6.776;2023-09-07T04:50:03;100823.97;;;21.64;62.22
72548;BME280;60570;50.848;6.776;2023-09-07T04:51:05;100817.50;;;21.64;62.02
72548;BME280;60570;50.848;6.776;2023-09-07T04:52:06;100819.50;;;21.63;62.17
72548;BME280;60570;50.848;6.776;2023-09-07T04:53:09;100821.09;;;21.61;62.27
72548;BME280;60570;50.848;6.776;2023-09-07T04:54:09;100821.91;;;21.61;62.50
72548;BME280;60570;50.848;6.776;2023-09-07T04:55:11;100824.75;;;21.61;62.28
72548;BME280;60570;50.848;6.776;2023-09-07T04:56:13;100825.97;;;21.60;62.37
72548;BME280;60570;50.848;6.776;2023-09-07T04:57:15;100825.97;;;21.60;62.39
72548;BME280;60570;50.848;6.776;2023-09-07T04:58:16;100828.41;;;21.58;62.20
72548;BME280;60570;50.848;6.776;2023-09-07T04:59:17;100821.94;;;21.58;62.15
72548;BME280;60570;50.848;6.776;2023-09-07T05:00:18;100826.38;;;21.59;62.38
72548;BME280;60570;50.848;6.776;2023-09-07T05:01:19;100831.22;;;21.58;62.42
72548;BME280;60570;50.848;6.776;2023-09-07T05:02:20;100831.97;;;21.23;62.03
72548;BME280;60570;50.848;6.776;2023-09-07T05:03:21;100835.38;;;20.75;63.34
72548;BME280;60570;50.848;6.776;2023-09-07T05:04:22;100829.97;;;20.41;64.13
72548;BME280;60570;50.848;6.776;2023-09-07T05:05:23;100833.63;;;20.45;64.26
72548;BME280;60570;50.848;6.776;2023-09-07T05:06:24;100834.06;;;20.58;64.03
72548;BME280;60570;50.848;6.776;2023-09-07T05:07:26;100830.94;;;20.74;63.89
72548;BME280;60570;50.848;6.776;2023-09-07T05:08:27;100832.59;;;20.85;63.48
72548;BME280;60570;50.848;6.776;2023-09-07T05:09:28;100835.47;;;20.96;63.12
72548;BME280;60570;50.848;6.776;2023-09-07T05:10:29;100839.97;;;21.04;62.88
72548;BME280;60570;50.848;6.776;2023-09-07T05:11:32;100841.22;;;21.10;62.71
72548;BME280;60570;50.848;6.776;2023-09-07T05:12:34;100840.41;;;21.16;62.52
72548;BME280;60570;50.848;6.776;2023-09-07T05:13:35;100836.41;;;21.21;62.34
72548;BME280;60570;50.848;6.776;2023-09-07T05:14:36;100842.47;;;21.23;62.37
72548;BME280;60570;50.848;6.776;2023-09-07T05:15:37;100842.47;;;21.26;62.22
72548;BME280;60570;50.848;6.776;2023-09-07T05:16:46;100840.03;;;21.28;62.09
72548;BME280;60570;50.848;6.776;2023-09-07T05:17:48;100838.84;;;21.29;62.26
72548;BME280;60570;50.848;6.776;2023-09-07T05:18:48;100843.28;;;21.30;62.25
72548;BME280;60570;50.848;6.776;2023-09-07T05:19:50;100842.47;;;21.30;62.08
72548;BME280;60570;50.848;6.776;2023-09-07T05:20:51;100838.44;;;21.31;61.94